sensor_id;sensor_type;location;lat;lon;timestamp;pressure;altitude;pressure_sealevel;temperature;humidity
44001;BME280;29660;42.892;24.710;2024-03-02T00:00:42;96408.53;;;6.87;100.00
44001;BME280;29660;42.892;24.710;2024-03-02T00:06:05;96521.31;;;7.77;100.00
44001;BME280;29660;42.892;24.710;2024-03-02T00:11:27;96505.38;;;7.77;100.00
44001;BME280;29660;42.892;24.710;2024-03-02T00:16:49;96497.53;;;7.67;100.00
44001;BME280;29660;42.892;24.710;2024-03-02T00:22:13;96471.94;;;7.52;100.00
44001;BME280;29660;42.892;24.710;2024-03-02T00:27:35;96480.13;;;7.55;100.00
44001;BME280;29660;42.892;24.710;2024-03-02T00:32:57;96492.38;;;7.51;100.00
44001;BME280;29660;42.892;24.710;2024-03-02T00:38:20;96378.56;;;6.92;100.00
44001;BME280;29660;42.892;24.710;2024-03-02T00:43:45;96472.94;;;7.56;100.00
44001;BME280;29660;42.892;24.710;2024-03-02T00:49:19;96479.09;;;7.51;100.00
44001;BME280;29660;42.892;24.710;2024-03-02T00:54:43;96449.53;;;7.34;100.00
44001;BME280;29660;42.892;24.710;2024-03-02T01:00:07;96486.59;;;7.44;100.00
44001;BME280;29660;42.892;24.710;2024-03-02T01:05:32;96465.19;;;7.30;100.00
44001;BME280;29660;42.892;24.710;2024-03-02T01:10:54;96468.63;;;7.36;100.00
44001;BME280;29660;42.892;24.710;2024-03-02T01:16:16;96475.00;;;7.35;100.00
44001;BME280;29660;42.892;24.710;2024-03-02T01:21:38;96446.44;;;7.22;100.00
44001;BME280;29660;42.892;24.710;2024-03-02T01:27:01;96457.38;;;7.15;100.00
44001;BME280;29660;42.892;24.710;2024-03-02T01:32:23;96407.84;;;6.76;100.00
44001;BME280;29660;42.892;24.710;2024-03-02T01:37:45;96449.22;;;7.06;100.00
44001;BME280;29660;42.892;24.710;2024-03-02T01:43:07;96447.75;;;6.90;100.00
44001;BME280;29660;42.892;24.710;2024-03-02T01:48:29;96467.81;;;7.01;100.00
44001;BME280;29660;42.892;24.710;2024-03-02T01:53:51;96453.59;;;6.92;100.00
44001;BME280;29660;42.892;24.710;2024-03-02T01:59:13;96280.00;;;5.77;100.00
44001;BME280;29660;42.892;24.710;2024-03-02T02:04:35;96462.09;;;6.89;100.00
44001;BME280;29660;42.892;24.710;2024-03-02T02:09:58;96411.66;;;6.60;100.00
44001;BME280;29660;42.892;24.710;2024-03-02T02:15:27;96372.72;;;6.16;100.00
44001;BME280;29660;42.892;24.710;2024-03-02T02:20:49;96451.47;;;6.89;100.00
44001;BME280;29660;42.892;24.710;2024-03-02T02:26:12;96446.78;;;6.81;100.00
44001;BME280;29660;42.892;24.710;2024-03-02T02:31:38;96458.06;;;6.92;100.00
44001;BME280;29660;42.892;24.710;2024-03-02T02:37:00;96444.59;;;6.88;100.00
44001;BME280;29660;42.892;24.710;2024-03-02T02:42:23;96489.00;;;7.06;100.00
44001;BME280;29660;42.892;24.710;2024-03-02T02:47:45;96318.16;;;6.20;100.00
44001;BME280;29660;42.892;24.710;2024-03-02T02:53:07;96338.50;;;6.25;100.00
44001;BME280;29660;42.892;24.710;2024-03-02T02:58:31;96425.97;;;6.98;100.00
44001;BME280;29660;42.892;24.710;2024-03-02T03:03:53;96431.22;;;7.03;100.00
44001;BME280;29660;42.892;24.710;2024-03-02T03:09:15;96449.75;;;7.08;100.00
44001;BME280;29660;42.892;24.710;2024-03-02T03:14:40;96431.25;;;6.98;100.00
44001;BME280;29660;42.892;24.710;2024-03-02T03:20:03;96352.28;;;6.27;100.00
44001;BME280;29660;42.892;24.710;2024-03-02T03:25:26;96455.66;;;7.00;100.00
44001;BME280;29660;42.892;24.710;2024-03-02T03:30:48;96449.69;;;7.13;100.00
44001;BME280;29660;42.892;24.710;2024-03-02T03:36:10;96453.00;;;7.00;100.00
44001;BME280;29660;42.892;24.710;2024-03-02T03:41:32;96460.63;;;7.07;100.00
44001;BME280;29660;42.892;24.710;2024-03-02T03:46:54;96434.47;;;6.95;100.00
44001;BME280;29660;42.892;24.710;2024-03-02T03:52:16;96462.97;;;7.13;100.00
44001;BME280;29660;42.892;24.710;2024-03-02T03:57:39;96451.50;;;7.18;100.00
44001;BME280;29660;42.892;24.710;2024-03-02T04:03:01;96438.13;;;6.99;100.00
44001;BME280;29660;42.892;24.710;2024-03-02T04:08:23;96323.44;;;6.25;100.00
44001;BME280;29660;42.892;24.710;2024-03-02T04:13:45;96449.81;;;6.98;100.00
44001;BME280;29660;42.892;24.710;2024-03-02T04:19:07;96451.44;;;6.94;100.00
44001;BME280;29660;42.892;24.710;2024-03-02T04:24:29;96318.53;;;6.03;100.00
44001;BME280;29660;42.892;24.710;2024-03-02T04:29:52;96439.59;;;6.81;100.00
44001;BME280;29660;42.892;24.710;2024-03-02T04:35:14;96383.63;;;6.09;100.00
44001;BME280;29660;42.892;24.710;2024-03-02T04:40:36;96450.72;;;6.83;100.00
44001;BME280;29660;42.892;24.710;2024-03-02T04:45:59;96480.69;;;6.84;100.00
44001;BME280;29660;42.892;24.710;2024-03-02T04:51:21;96473.97;;;6.92;100.00
44001;BME280;29660;42.892;24.710;2024-03-02T04:56:43;96474.31;;;6.85;100.00
44001;BME280;29660;42.892;24.710;2024-03-02T05:02:12;96478.09;;;6.74;100.00
44001;BME280;29660;42.892;24.710;2024-03-02T05:07:35;96480.63;;;6.89;100.00
44001;BME280;29660;42.892;24.710;2024-03-02T05:12:57;96477.00;;;6.80;100.00
44001;BME280;29660;42.892;24.710;2024-03-02T05:18:21;96490.34;;;7.04;100.00
44001;BME280;29660;42.892;24.710;2024-03-02T05:23:45;96489.41;;;6.84;100.00
44001;BME280;29660;42.892;24.710;2024-03-02T05:29:07;96466.94;;;6.77;100.00
44001;BME280;29660;42.892;24.710;2024-03-02T05:34:30;96500.19;;;6.98;100.00
44001;BME280;29660;42.892;24.710;2024-03-02T05:39:52;96383.25;;;6.26;100.00
44001;BME280;29660;42.892;24.710;2024-03-02T05:45:15;96509.94;;;7.08;100.00
44001;BME280;29660;42.892;24.710;2024-03-02T05:50:38;96514.66;;;7.16;100.00
44001;BME280;29660;42.892;24.710;2024-03-02T05:56:00;96509.91;;;7.13;100.00
44001;BME280;29660;42.892;24.710;2024-03-02T06:01:25;96394.84;;;6.35;100.00
44001;BME280;29660;42.892;24.710;2024-03-02T06:06:50;96437.34;;;6.64;100.00
44001;BME280;29660;42.892;24.710;2024-03-02T06:12:13;96443.75;;;6.53;100.00
44001;BME280;29660;42.892;24.710;2024-03-02T06:17:35;96393.78;;;6.42;100.00
44001;BME280;29660;42.892;24.710;2024-03-02T06:22:57;96527.81;;;7.26;100.00
44001;BME280;29660;42.892;24.710;2024-03-02T06:28:19;96527.81;;;7.26;100.00
44001;BME280;29660;42.892;24.710;2024-03-02T06:33:42;96527.28;;;7.29;100.00
44001;BME280;29660;42.892;24.710;2024-03-02T06:39:04;96538.97;;;7.28;100.00
44001;BME280;29660;42.892;24.710;2024-03-02T06:44:27;96540.09;;;7.17;100.00
44001;BME280;29660;42.892;24.710;2024-03-02T06:49:49;96538.69;;;7.30;100.00
44001;BME280;29660;42.892;24.710;2024-03-02T06:55:11;96520.78;;;7.11;100.00
44001;BME280;29660;42.892;24.710;2024-03-02T07:00:33;96505.16;;;7.10;100.00
44001;BME280;29660;42.892;24.710;2024-03-02T07:05:55;96530.34;;;7.47;100.00
44001;BME280;29660;42.892;24.710;2024-03-02T07:11:17;96545.97;;;7.48;100.00
44001;BME280;29660;42.892;24.710;2024-03-02T07:16:58;96514.78;;;7.35;100.00
44001;BME280;29660;42.892;24.710;2024-03-02T07:22:20;96545.13;;;7.53;100.00
44001;BME280;29660;42.892;24.710;2024-03-02T07:27:43;96545.63;;;7.60;100.00
44001;BME280;29660;42.892;24.710;2024-03-02T07:33:06;96470.44;;;7.06;100.00
44001;BME280;29660;42.892;24.710;2024-03-02T07:38:28;96552.25;;;7.62;100.00
44001;BME280;29660;42.892;24.710;2024-03-02T07:43:51;96551.75;;;7.55;100.00
44001;BME280;29660;42.892;24.710;2024-03-02T07:49:13;96481.59;;;7.03;100.00
44001;BME280;29660;42.892;24.710;2024-03-02T07:54:38;96556.94;;;7.71;100.00
44001;BME280;29660;42.892;24.710;2024-03-02T08:00:00;96563.72;;;7.82;100.00
44001;BME280;29660;42.892;24.710;2024-03-02T08:05:32;96567.38;;;7.91;100.00
44001;BME280;29660;42.892;24.710;2024-03-02T08:10:54;96566.34;;;7.87;100.00
44001;BME280;29660;42.892;24.710;2024-03-02T08:16:18;96456.56;;;7.20;100.00
44001;BME280;29660;42.892;24.710;2024-03-02T08:21:42;96566.16;;;8.07;100.00
44001;BME280;29660;42.892;24.710;2024-03-02T08:27:05;96565.09;;;8.08;100.00
44001;BME280;29660;42.892;24.710;2024-03-02T08:32:27;96571.78;;;8.30;100.00
44001;BME280;29660;42.892;24.710;2024-03-02T08:37:49;96559.47;;;8.39;100.00
44001;BME280;29660;42.892;24.710;2024-03-02T08:43:12;96409.59;;;7.49;100.00
44001;BME280;29660;42.892;24.710;2024-03-02T08:48:34;96441.03;;;7.90;100.00
44001;BME280;29660;42.892;24.710;2024-03-02T08:53:56;96572.28;;;8.80;100.00
44001;BME280;29660;42.892;24.710;2024-03-02T08:59:19;96223.31;;;6.85;100.00
44001;BME280;29660;42.892;24.710;2024-03-02T09:04:41;96580.44;;;9.07;100.00
44001;BME280;29660;42.892;24.710;2024-03-02T09:10:05;96559.75;;;9.04;100.00
44001;BME280;29660;42.892;24.710;2024-03-02T09:15:27;96551.47;;;9.25;100.00
44001;BME280;29660;42.892;24.710;2024-03-02T09:20:50;96558.72;;;9.38;100.00
44001;BME280;29660;42.892;24.710;2024-03-02T09:26:12;96553.50;;;9.66;100.00
44001;BME280;29660;42.892;24.710;2024-03-02T09:31:42;96500.78;;;9.49;100.00
44001;BME280;29660;42.892;24.710;2024-03-02T09:37:05;96552.97;;;9.82;100.00
44001;BME280;29660;42.892;24.710;2024-03-02T09:42:27;96367.88;;;8.59;100.00
44001;BME280;29660;42.892;24.710;2024-03-02T09:47:50;96545.84;;;9.78;100.00
44001;BME280;29660;42.892;24.710;2024-03-02T09:53:13;96530.06;;;9.81;100.00
44001;BME280;29660;42.892;24.710;2024-03-02T09:58:36;96535.38;;;9.81;100.00
44001;BME280;29660;42.892;24.710;2024-03-02T10:03:59;96533.06;;;9.61;100.00
44001;BME280;29660;42.892;24.710;2024-03-02T10:09:27;96540.16;;;9.33;100.00
44001;BME280;29660;42.892;24.710;2024-03-02T10:15:03;96500.13;;;9.24;100.00
44001;BME280;29660;42.892;24.710;2024-03-02T10:20:26;96513.13;;;9.58;100.00
44001;BME280;29660;42.892;24.710;2024-03-02T10:25:50;96421.69;;;8.51;100.00
44001;BME280;29660;42.892;24.710;2024-03-02T10:31:16;96546.44;;;9.75;100.00
44001;BME280;29660;42.892;24.710;2024-03-02T10:36:42;96351.06;;;8.64;100.00
44001;BME280;29660;42.892;24.710;2024-03-02T10:42:08;96383.06;;;8.92;100.00
44001;BME280;29660;42.892;24.710;2024-03-02T10:47:32;96530.47;;;9.89;100.00
44001;BME280;29660;42.892;24.710;2024-03-02T10:52:55;96547.34;;;9.84;100.00
44001;BME280;29660;42.892;24.710;2024-03-02T10:58:18;96531.94;;;9.81;100.00
44001;BME280;29660;42.892;24.710;2024-03-02T11:03:40;96533.94;;;9.89;100.00
44001;BME280;29660;42.892;24.710;2024-03-02T11:09:06;96526.50;;;9.86;100.00
44001;BME280;29660;42.892;24.710;2024-03-02T11:14:32;96515.97;;;9.81;100.00
44001;BME280;29660;42.892;24.710;2024-03-02T11:19:55;96384.50;;;8.84;100.00
44001;BME280;29660;42.892;24.710;2024-03-02T11:25:26;96524.13;;;9.71;100.00
44001;BME280;29660;42.892;24.710;2024-03-02T11:30:49;96538.19;;;9.57;100.00
44001;BME280;29660;42.892;24.710;2024-03-02T11:36:13;96538.59;;;9.32;100.00
44001;BME280;29660;42.892;24.710;2024-03-02T11:41:35;96538.59;;;9.32;100.00
44001;BME280;29660;42.892;24.710;2024-03-02T11:47:08;96544.63;;;9.38;100.00
44001;BME280;29660;42.892;24.710;2024-03-02T11:52:30;96531.31;;;9.19;100.00
44001;BME280;29660;42.892;24.710;2024-03-02T11:57:53;96544.91;;;9.36;100.00
44001;BME280;29660;42.892;24.710;2024-03-02T12:03:15;96569.78;;;9.45;100.00
44001;BME280;29660;42.892;24.710;2024-03-02T12:08:38;96514.59;;;8.99;100.00
44001;BME280;29660;42.892;24.710;2024-03-02T12:14:00;96442.56;;;8.39;100.00
44001;BME280;29660;42.892;24.710;2024-03-02T12:19:22;96564.34;;;9.18;100.00
44001;BME280;29660;42.892;24.710;2024-03-02T12:24:44;96455.09;;;8.57;100.00
44001;BME280;29660;42.892;24.710;2024-03-02T12:30:10;96556.06;;;9.38;100.00
44001;BME280;29660;42.892;24.710;2024-03-02T12:35:32;96504.44;;;9.20;100.00
44001;BME280;29660;42.892;24.710;2024-03-02T12:40:54;96553.34;;;9.24;100.00
44001;BME280;29660;42.892;24.710;2024-03-02T12:46:16;96561.59;;;9.42;100.00
44001;BME280;29660;42.892;24.710;2024-03-02T12:51:40;96491.88;;;8.88;100.00
44001;BME280;29660;42.892;24.710;2024-03-02T12:57:05;96584.47;;;9.24;100.00
44001;BME280;29660;42.892;24.710;2024-03-02T13:02:31;96581.16;;;9.13;100.00
44001;BME280;29660;42.892;24.710;2024-03-02T13:07:53;96582.09;;;9.22;100.00
44001;BME280;29660;42.892;24.710;2024-03-02T13:13:16;96560.09;;;8.98;100.00
44001;BME280;29660;42.892;24.710;2024-03-02T13:18:39;96590.44;;;9.16;100.00
44001;BME280;29660;42.892;24.710;2024-03-02T13:24:05;96601.16;;;9.10;100.00
44001;BME280;29660;42.892;24.710;2024-03-02T13:29:27;96600.56;;;9.14;100.00
44001;BME280;29660;42.892;24.710;2024-03-02T13:34:49;96491.56;;;8.28;100.00
44001;BME280;29660;42.892;24.710;2024-03-02T13:40:12;96608.44;;;8.81;100.00
44001;BME280;29660;42.892;24.710;2024-03-02T13:45:39;96407.22;;;7.19;100.00
44001;BME280;29660;42.892;24.710;2024-03-02T13:51:01;96601.63;;;8.22;100.00
44001;BME280;29660;42.892;24.710;2024-03-02T13:56:24;96525.84;;;7.76;100.00
44001;BME280;29660;42.892;24.710;2024-03-02T14:01:46;96606.41;;;8.20;100.00
44001;BME280;29660;42.892;24.710;2024-03-02T14:07:08;96605.97;;;8.36;100.00
44001;BME280;29660;42.892;24.710;2024-03-02T14:12:31;96606.22;;;8.40;100.00
44001;BME280;29660;42.892;24.710;2024-03-02T14:17:53;96593.53;;;8.37;100.00
44001;BME280;29660;42.892;24.710;2024-03-02T14:23:15;96462.09;;;7.52;100.00
44001;BME280;29660;42.892;24.710;2024-03-02T14:28:37;96615.59;;;8.62;100.00
44001;BME280;29660;42.892;24.710;2024-03-02T14:34:08;96618.09;;;8.72;100.00
44001;BME280;29660;42.892;24.710;2024-03-02T14:39:31;96567.75;;;8.38;100.00
44001;BME280;29660;42.892;24.710;2024-03-02T14:44:56;96623.16;;;8.73;100.00
44001;BME280;29660;42.892;24.710;2024-03-02T14:50:20;96630.94;;;8.41;100.00
44001;BME280;29660;42.892;24.710;2024-03-02T14:55:42;96632.31;;;8.38;100.00
44001;BME280;29660;42.892;24.710;2024-03-02T15:01:04;96632.66;;;8.26;100.00
44001;BME280;29660;42.892;24.710;2024-03-02T15:06:30;96584.94;;;7.87;100.00
44001;BME280;29660;42.892;24.710;2024-03-02T15:11:53;96652.34;;;8.20;100.00
44001;BME280;29660;42.892;24.710;2024-03-02T15:17:16;96655.94;;;8.05;100.00
44001;BME280;29660;42.892;24.710;2024-03-02T15:22:38;96664.59;;;7.87;100.00
44001;BME280;29660;42.892;24.710;2024-03-02T15:28:01;96665.19;;;7.79;100.00
44001;BME280;29660;42.892;24.710;2024-03-02T15:33:23;96677.38;;;7.80;100.00
44001;BME280;29660;42.892;24.710;2024-03-02T15:38:51;96672.56;;;7.87;100.00
44001;BME280;29660;42.892;24.710;2024-03-02T15:44:13;96681.91;;;7.79;100.00
44001;BME280;29660;42.892;24.710;2024-03-02T15:49:35;96686.69;;;7.77;100.00
44001;BME280;29660;42.892;24.710;2024-03-02T15:54:57;96581.28;;;6.99;100.00
44001;BME280;29660;42.892;24.710;2024-03-02T16:00:20;96629.47;;;7.17;100.00
44001;BME280;29660;42.892;24.710;2024-03-02T16:06:02;96647.56;;;7.04;100.00
44001;BME280;29660;42.892;24.710;2024-03-02T16:11:24;96719.78;;;7.46;100.00
44001;BME280;29660;42.892;24.710;2024-03-02T16:16:46;96604.28;;;6.59;100.00
44001;BME280;29660;42.892;24.710;2024-03-02T16:22:08;96723.22;;;7.46;100.00
44001;BME280;29660;42.892;24.710;2024-03-02T16:27:33;96736.44;;;7.56;100.00
44001;BME280;29660;42.892;24.710;2024-03-02T16:32:55;96491.41;;;5.83;100.00
44001;BME280;29660;42.892;24.710;2024-03-02T16:38:18;96751.81;;;7.54;100.00
44001;BME280;29660;42.892;24.710;2024-03-02T16:43:40;96754.47;;;7.59;100.00
44001;BME280;29660;42.892;24.710;2024-03-02T16:49:03;96767.44;;;7.71;100.00
44001;BME280;29660;42.892;24.710;2024-03-02T16:54:25;96725.00;;;7.61;100.00
44001;BME280;29660;42.892;24.710;2024-03-02T16:59:48;96756.44;;;7.88;100.00
44001;BME280;29660;42.892;24.710;2024-03-02T17:05:10;96754.91;;;7.77;100.00
44001;BME280;29660;42.892;24.710;2024-03-02T17:10:32;96763.31;;;7.89;100.00
44001;BME280;29660;42.892;24.710;2024-03-02T17:15:54;96646.38;;;7.26;100.00
44001;BME280;29660;42.892;24.710;2024-03-02T17:21:17;96764.25;;;8.14;100.00
44001;BME280;29660;42.892;24.710;2024-03-02T17:26:39;96695.69;;;7.81;100.00
44001;BME280;29660;42.892;24.710;2024-03-02T17:32:01;96777.41;;;8.29;100.00
44001;BME280;29660;42.892;24.710;2024-03-02T17:37:23;96637.72;;;7.59;100.00
44001;BME280;29660;42.892;24.710;2024-03-02T17:42:46;96751.88;;;8.33;100.00
44001;BME280;29660;42.892;24.710;2024-03-02T17:48:08;96681.56;;;7.91;100.00
44001;BME280;29660;42.892;24.710;2024-03-02T17:53:30;96670.19;;;7.80;100.00
44001;BME280;29660;42.892;24.710;2024-03-02T17:58:52;96738.88;;;8.31;100.00
44001;BME280;29660;42.892;24.710;2024-03-02T18:04:15;96658.25;;;7.83;100.00
44001;BME280;29660;42.892;24.710;2024-03-02T18:09:37;96731.69;;;8.37;100.00
44001;BME280;29660;42.892;24.710;2024-03-02T18:14:59;96745.53;;;8.29;100.00
44001;BME280;29660;42.892;24.710;2024-03-02T18:20:23;96730.41;;;8.29;100.00
44001;BME280;29660;42.892;24.710;2024-03-02T18:25:45;96738.72;;;8.18;100.00
44001;BME280;29660;42.892;24.710;2024-03-02T18:31:10;96603.13;;;7.30;100.00
44001;BME280;29660;42.892;24.710;2024-03-02T18:36:32;96735.06;;;8.08;100.00
44001;BME280;29660;42.892;24.710;2024-03-02T18:41:55;96732.72;;;8.02;100.00
44001;BME280;29660;42.892;24.710;2024-03-02T18:47:17;96733.06;;;7.90;100.00
44001;BME280;29660;42.892;24.710;2024-03-02T18:52:39;96753.25;;;7.91;100.00
44001;BME280;29660;42.892;24.710;2024-03-02T18:58:01;96759.44;;;7.76;100.00
44001;BME280;29660;42.892;24.710;2024-03-02T19:03:25;96758.13;;;7.69;100.00
44001;BME280;29660;42.892;24.710;2024-03-02T19:08:47;96756.59;;;7.57;100.00
44001;BME280;29660;42.892;24.710;2024-03-02T19:14:09;96755.31;;;7.55;100.00
44001;BME280;29660;42.892;24.710;2024-03-02T19:19:32;96741.59;;;7.32;100.00
44001;BME280;29660;42.892;24.710;2024-03-02T19:24:55;96768.91;;;7.33;100.00
44001;BME280;29660;42.892;24.710;2024-03-02T19:30:18;96770.25;;;7.25;100.00
44001;BME280;29660;42.892;24.710;2024-03-02T19:35:41;96776.97;;;7.02;100.00
44001;BME280;29660;42.892;24.710;2024-03-02T19:41:03;96776.69;;;6.99;100.00
44001;BME280;29660;42.892;24.710;2024-03-02T19:46:26;96781.25;;;6.88;100.00
44001;BME280;29660;42.892;24.710;2024-03-02T19:51:48;96782.31;;;6.82;100.00
44001;BME280;29660;42.892;24.710;2024-03-02T19:57:11;96782.84;;;6.69;100.00
44001;BME280;29660;42.892;24.710;2024-03-02T20:02:33;96648.84;;;5.71;100.00
44001;BME280;29660;42.892;24.710;2024-03-02T20:07:55;96742.06;;;6.19;100.00
44001;BME280;29660;42.892;24.710;2024-03-02T20:13:18;96794.25;;;6.38;100.00
44001;BME280;29660;42.892;24.710;2024-03-02T20:18:40;96787.34;;;6.27;100.00
44001;BME280;29660;42.892;24.710;2024-03-02T20:24:03;96788.16;;;6.23;100.00
44001;BME280;29660;42.892;24.710;2024-03-02T20:29:25;96765.34;;;5.96;100.00
44001;BME280;29660;42.892;24.710;2024-03-02T20:34:47;96791.84;;;6.11;100.00
44001;BME280;29660;42.892;24.710;2024-03-02T20:40:10;96785.50;;;6.18;100.00
44001;BME280;29660;42.892;24.710;2024-03-02T20:45:33;96781.25;;;6.27;100.00
44001;BME280;29660;42.892;24.710;2024-03-02T20:50:57;96788.41;;;6.31;100.00
44001;BME280;29660;42.892;24.710;2024-03-02T20:56:20;96773.59;;;6.25;100.00
44001;BME280;29660;42.892;24.710;2024-03-02T21:01:42;96789.50;;;6.41;100.00
44001;BME280;29660;42.892;24.710;2024-03-02T21:07:06;96788.16;;;6.58;100.00
44001;BME280;29660;42.892;24.710;2024-03-02T21:12:28;96794.78;;;6.56;100.00
44001;BME280;29660;42.892;24.710;2024-03-02T21:17:50;96792.94;;;6.56;100.00
44001;BME280;29660;42.892;24.710;2024-03-02T21:23:12;96763.53;;;6.43;100.00
44001;BME280;29660;42.892;24.710;2024-03-02T21:28:36;96707.63;;;6.08;100.00
44001;BME280;29660;42.892;24.710;2024-03-02T21:33:58;96778.63;;;6.57;100.00
44001;BME280;29660;42.892;24.710;2024-03-02T21:39:21;96784.19;;;6.66;100.00
44001;BME280;29660;42.892;24.710;2024-03-02T21:44:50;96779.94;;;6.70;100.00
44001;BME280;29660;42.892;24.710;2024-03-02T21:50:12;96772.25;;;6.69;100.00
44001;BME280;29660;42.892;24.710;2024-03-02T21:55:34;96723.00;;;6.37;100.00
44001;BME280;29660;42.892;24.710;2024-03-02T22:00:57;96764.59;;;6.57;100.00
44001;BME280;29660;42.892;24.710;2024-03-02T22:06:19;96646.78;;;5.98;100.00
44001;BME280;29660;42.892;24.710;2024-03-02T22:11:41;96773.84;;;6.80;100.00
44001;BME280;29660;42.892;24.710;2024-03-02T22:17:04;96774.34;;;6.82;100.00
44001;BME280;29660;42.892;24.710;2024-03-02T22:22:26;96663.41;;;6.09;100.00
44001;BME280;29660;42.892;24.710;2024-03-02T22:27:48;96776.72;;;6.83;100.00
44001;BME280;29660;42.892;24.710;2024-03-02T22:33:17;96646.19;;;5.81;100.00
44001;BME280;29660;42.892;24.710;2024-03-02T22:38:39;96774.63;;;6.60;100.00
44001;BME280;29660;42.892;24.710;2024-03-02T22:44:01;96736.25;;;6.22;100.00
44001;BME280;29660;42.892;24.710;2024-03-02T22:49:23;96772.28;;;6.33;100.00
44001;BME280;29660;42.892;24.710;2024-03-02T22:54:45;96758.47;;;6.10;100.00
44001;BME280;29660;42.892;24.710;2024-03-02T23:00:08;96773.56;;;6.10;100.00
44001;BME280;29660;42.892;24.710;2024-03-02T23:05:42;96772.22;;;5.97;100.00
44001;BME280;29660;42.892;24.710;2024-03-02T23:11:04;96695.34;;;5.41;100.00
44001;BME280;29660;42.892;24.710;2024-03-02T23:16:27;96772.16;;;5.77;100.00
44001;BME280;29660;42.892;24.710;2024-03-02T23:21:51;96765.78;;;5.62;100.00
44001;BME280;29660;42.892;24.710;2024-03-02T23:27:14;96687.00;;;4.97;100.00
44001;BME280;29660;42.892;24.710;2024-03-02T23:32:36;96766.72;;;5.31;100.00
44001;BME280;29660;42.892;24.710;2024-03-02T23:37:58;96753.94;;;5.12;100.00
44001;BME280;29660;42.892;24.710;2024-03-02T23:43:20;96792.09;;;5.27;100.00
44001;BME280;29660;42.892;24.710;2024-03-02T23:48:43;96777.25;;;5.26;100.00
44001;BME280;29660;42.892;24.710;2024-03-02T23:54:05;96777.53;;;5.29;100.00
44001;BME280;29660;42.892;24.710;2024-03-02T23:59:27;96779.66;;;5.27;100.00
